Time;durP1;ratioP1;P1;durP2;ratioP2;P2;SDS_P1;SDS_P2;PMS_P1;PMS_P2;Temp;Humidity;BMP_temperature;BMP_pressure;BME280_temperature;BME280_humidity;BME280_pressure;Samples;Min_cycle;Max_cycle;Signal;HPM_P1;HPM_P2
2023/03/05 00:01:07;;;;;;;3.45;0.90;;;4.20;99.90;;;;;;5069919;28;20131;-69
2023/03/05 00:03:33;;;;;;;6.88;1.10;;;4.20;99.90;;;;;;5084101;28;20033;-69
2023/03/05 00:05:59;;;;;;;6.75;1.10;;;4.20;99.90;;;;;;5116823;27;20152;-69
2023/03/05 00:08:24;;;;;;;7.03;1.10;;;4.10;99.90;;;;;;5096062;28;20040;-69
2023/03/05 00:11:16;;;;;;;6.20;1.08;;;4.10;99.90;;;;;;5093068;28;20040;-69
2023/03/05 00:13:42;;;;;;;4.05;0.77;;;4.10;99.90;;;;;;5091035;28;20404;-69
2023/03/05 00:16:14;;;;;;;4.70;1.00;;;4.10;99.90;;;;;;5090626;28;20032;-69
2023/03/05 00:18:42;;;;;;;5.38;1.08;;;4.00;99.90;;;;;;5069451;28;20039;-70
2023/03/05 00:21:23;;;;;;;3.17;0.80;;;4.00;99.90;;;;;;5090846;28;20583;-69
2023/03/05 00:23:50;;;;;;;6.40;1.25;;;4.00;99.90;;;;;;5057629;28;20492;-69
2023/03/05 00:26:17;;;;;;;4.35;1.08;;;4.00;99.90;;;;;;5073701;28;20048;-69
2023/03/05 00:28:42;;;;;;;9.90;1.50;;;4.00;99.90;;;;;;5098213;28;20028;-69
2023/03/05 00:31:08;;;;;;;6.47;1.33;;;4.00;99.90;;;;;;5101072;28;20041;-69
2023/03/05 00:33:34;;;;;;;5.68;1.10;;;4.00;99.90;;;;;;5074359;28;20043;-70
2023/03/05 00:36:05;;;;;;;5.68;1.35;;;4.00;99.90;;;;;;5092554;28;20037;-69
2023/03/05 00:38:30;;;;;;;5.65;1.27;;;3.90;99.90;;;;;;5094577;28;20033;-69
2023/03/05 00:40:56;;;;;;;3.25;1.10;;;4.00;99.90;;;;;;5111690;28;20225;-70
2023/03/05 00:43:21;;;;;;;8.38;1.25;;;3.90;99.90;;;;;;5076769;28;20035;-69
2023/03/05 00:45:47;;;;;;;5.47;1.13;;;3.90;99.90;;;;;;5126940;27;20043;-69
2023/03/05 00:48:12;;;;;;;3.85;1.00;;;3.90;99.90;;;;;;5077256;28;20047;-70
2023/03/05 00:50:38;;;;;;;6.32;1.30;;;3.90;99.90;;;;;;5109182;28;20028;-70
2023/03/05 00:53:03;;;;;;;6.75;1.10;;;4.00;99.90;;;;;;5075800;28;20245;-69
2023/03/05 00:55:29;;;;;;;4.85;1.00;;;4.00;99.90;;;;;;5110994;28;20062;-70
2023/03/05 00:57:55;;;;;;;5.65;1.20;;;3.90;99.90;;;;;;5076815;28;20116;-70
2023/03/05 01:00:20;;;;;;;3.63;0.70;;;3.90;99.90;;;;;;5111056;28;20498;-69
2023/03/05 01:02:46;;;;;;;5.93;0.95;;;3.90;99.90;;;;;;5118737;27;20037;-69
2023/03/05 01:05:13;;;;;;;4.00;0.80;;;3.90;99.90;;;;;;5073675;28;20039;-69
2023/03/05 01:07:39;;;;;;;5.00;0.80;;;3.90;99.90;;;;;;5087998;28;20040;-70
2023/03/05 01:10:06;;;;;;;4.50;1.08;;;3.90;99.90;;;;;;5077288;28;20043;-70
2023/03/05 01:12:31;;;;;;;5.05;1.00;;;3.90;99.90;;;;;;5110162;28;20040;-69
2023/03/05 01:14:57;;;;;;;5.13;0.90;;;4.00;99.90;;;;;;5128149;27;20040;-69
2023/03/05 01:17:22;;;;;;;3.92;0.85;;;3.90;99.90;;;;;;5126922;27;20119;-70
2023/03/05 01:19:48;;;;;;;3.60;0.80;;;3.90;99.90;;;;;;5126504;27;20044;-69
2023/03/05 01:22:13;;;;;;;4.88;0.82;;;3.90;99.90;;;;;;5071544;28;20029;-69
2023/03/05 01:24:39;;;;;;;5.03;0.98;;;3.80;99.90;;;;;;5056683;28;20382;-69
2023/03/05 01:27:04;;;;;;;5.13;0.98;;;3.90;99.90;;;;;;5078554;28;20067;-69
2023/03/05 01:29:30;;;;;;;5.75;1.25;;;3.80;99.90;;;;;;5127631;27;20036;-69
2023/03/05 01:31:55;;;;;;;7.85;1.30;;;3.80;99.90;;;;;;5127455;27;20036;-69
2023/03/05 01:34:21;;;;;;;4.35;1.02;;;3.80;99.90;;;;;;5127740;27;20128;-69
2023/03/05 01:36:49;;;;;;;3.90;0.82;;;3.70;99.90;;;;;;5126514;27;20028;-69
2023/03/05 01:39:15;;;;;;;5.18;1.20;;;3.80;99.90;;;;;;5101630;28;20124;-70
2023/03/05 01:41:41;;;;;;;5.38;1.25;;;3.80;99.90;;;;;;5101074;28;20039;-70
2023/03/05 01:44:06;;;;;;;4.75;1.05;;;3.80;99.90;;;;;;5075282;28;20518;-70
2023/03/05 01:46:33;;;;;;;4.80;1.33;;;3.80;99.90;;;;;;5127268;27;20040;-70
2023/03/05 01:49:13;;;;;;;5.70;1.10;;;3.90;99.90;;;;;;5113806;27;20411;-70
2023/03/05 01:52:08;;;;;;;5.63;1.00;;;3.90;99.90;;;;;;5117800;27;20043;-70
2023/03/05 01:54:42;;;;;;;5.07;1.30;;;3.80;99.90;;;;;;5093052;28;20044;-70
2023/03/05 01:57:15;;;;;;;5.63;1.27;;;3.80;99.90;;;;;;5091210;28;20463;-70
2023/03/05 01:59:43;;;;;;;5.32;1.08;;;3.80;99.90;;;;;;5093050;28;20119;-70
2023/03/05 02:02:09;;;;;;;6.05;1.35;;;3.80;99.90;;;;;;5092232;28;20065;-70
2023/03/05 02:05:07;;;;;;;5.20;0.98;;;3.70;99.90;;;;;;5126940;27;20480;-70
2023/03/05 02:07:36;;;;;;;3.67;1.00;;;3.70;99.90;;;;;;5109150;28;20039;-70
2023/03/05 02:10:13;;;;;;;5.15;1.17;;;3.70;99.90;;;;;;5092406;28;20089;-71
2023/03/05 02:12:39;;;;;;;6.57;1.15;;;3.60;99.90;;;;;;5075799;28;20135;-70
2023/03/05 02:15:05;;;;;;;4.85;1.30;;;3.60;99.90;;;;;;5091546;28;20039;-71
2023/03/05 02:17:31;;;;;;;4.80;1.17;;;3.60;99.90;;;;;;5073482;28;20552;-70
2023/03/05 02:20:05;;;;;;;7.22;0.85;;;3.50;99.90;;;;;;5092839;28;20040;-70
2023/03/05 02:22:31;;;;;;;5.43;1.10;;;3.50;99.90;;;;;;5092602;28;20040;-70
2023/03/05 02:24:56;;;;;;;5.30;1.10;;;3.50;99.90;;;;;;5074563;28;20040;-70
2023/03/05 02:27:33;;;;;;;4.63;1.10;;;3.50;99.90;;;;;;5103920;28;20044;-70
2023/03/05 02:30:00;;;;;;;4.25;1.17;;;3.50;99.90;;;;;;5106149;28;20052;-70
2023/03/05 02:32:26;;;;;;;3.65;1.00;;;3.50;99.90;;;;;;5089117;28;20054;-70
2023/03/05 02:34:52;;;;;;;5.05;1.23;;;3.40;99.90;;;;;;5089025;28;20565;-70
2023/03/05 02:37:17;;;;;;;4.68;1.30;;;3.40;99.90;;;;;;5096628;28;20061;-70
2023/03/05 02:39:43;;;;;;;7.05;1.42;;;3.40;99.90;;;;;;5125696;27;20077;-70
2023/03/05 02:42:09;;;;;;;8.10;1.17;;;3.40;99.90;;;;;;5126626;27;20043;-70
2023/03/05 02:44:34;;;;;;;5.45;1.27;;;3.40;99.90;;;;;;5109220;28;20032;-70
2023/03/05 02:47:00;;;;;;;6.07;1.50;;;3.40;99.90;;;;;;5101850;28;20041;-70
2023/03/05 02:49:26;;;;;;;9.90;1.92;;;3.40;99.90;;;;;;5055318;28;20413;-70
2023/03/05 02:51:52;;;;;;;7.22;1.25;;;3.40;99.90;;;;;;5055811;28;20040;-70
2023/03/05 02:54:18;;;;;;;9.02;1.48;;;3.40;99.90;;;;;;5092419;28;20039;-70
2023/03/05 02:56:43;;;;;;;4.85;1.20;;;3.40;99.90;;;;;;5108046;28;20090;-70
2023/03/05 02:59:09;;;;;;;6.63;1.35;;;3.40;99.90;;;;;;5126278;27;20135;-70
2023/03/05 03:01:34;;;;;;;5.72;1.58;;;3.30;99.90;;;;;;5108977;28;20156;-70
2023/03/05 03:04:00;;;;;;;5.65;1.30;;;3.30;99.90;;;;;;5093104;28;20040;-70
2023/03/05 03:06:25;;;;;;;4.47;1.30;;;3.30;99.90;;;;;;5105306;28;20563;-70
2023/03/05 03:08:51;;;;;;;3.88;1.10;;;3.30;99.90;;;;;;5108019;28;20098;-70
2023/03/05 03:11:17;;;;;;;8.18;1.58;;;3.40;99.90;;;;;;5109910;28;20386;-70
2023/03/05 03:13:43;;;;;;;3.03;0.98;;;3.40;99.90;;;;;;5092066;28;20086;-70
2023/03/05 03:16:11;;;;;;;4.70;1.20;;;3.40;99.90;;;;;;5078294;28;20036;-70
2023/03/05 03:18:37;;;;;;;4.57;1.08;;;3.40;99.90;;;;;;5083644;28;20032;-70
2023/03/05 03:21:04;;;;;;;8.07;1.50;;;3.40;99.90;;;;;;5079473;28;20043;-70
2023/03/05 03:23:29;;;;;;;7.78;1.50;;;3.40;99.90;;;;;;5078294;28;20071;-70
2023/03/05 03:25:55;;;;;;;4.07;1.55;;;3.40;99.90;;;;;;5094510;28;20068;-70
2023/03/05 03:28:22;;;;;;;4.30;1.02;;;3.40;99.90;;;;;;5095079;28;20035;-70
2023/03/05 03:30:48;;;;;;;5.72;1.15;;;3.40;99.90;;;;;;5113129;28;20079;-70
2023/03/05 03:33:13;;;;;;;7.47;1.58;;;3.30;99.90;;;;;;5112767;28;20071;-70
2023/03/05 03:35:39;;;;;;;6.90;1.30;;;3.30;99.90;;;;;;5095771;28;20123;-70
2023/03/05 03:38:05;;;;;;;4.85;1.30;;;3.30;99.90;;;;;;5113082;27;20063;-70
2023/03/05 03:40:30;;;;;;;5.20;1.30;;;3.30;99.90;;;;;;5112635;28;20081;-70
2023/03/05 03:42:56;;;;;;;6.80;1.30;;;3.30;99.90;;;;;;5112244;28;20040;-70
2023/03/05 03:45:22;;;;;;;3.63;1.13;;;3.20;99.90;;;;;;5081978;28;20028;-70
2023/03/05 03:47:49;;;;;;;5.72;1.25;;;3.20;99.90;;;;;;5094457;28;20124;-70
2023/03/05 03:50:14;;;;;;;7.32;1.50;;;3.20;99.90;;;;;;5094819;28;20043;-70
2023/03/05 03:52:40;;;;;;;5.40;1.20;;;3.20;99.90;;;;;;5077745;28;20043;-70
2023/03/05 03:55:06;;;;;;;3.50;1.00;;;3.20;99.90;;;;;;5095344;28;20032;-70
2023/03/05 03:57:34;;;;;;;7.50;1.70;;;3.20;99.90;;;;;;5094379;28;20411;-70
2023/03/05 04:00:00;;;;;;;4.88;1.30;;;3.20;99.90;;;;;;5095537;28;20036;-70
2023/03/05 04:02:26;;;;;;;6.15;1.25;;;3.20;99.90;;;;;;5111640;27;20032;-70
2023/03/05 04:04:52;;;;;;;6.05;1.13;;;3.20;99.90;;;;;;5078343;28;20513;-70
2023/03/05 04:07:18;;;;;;;5.68;1.35;;;3.10;99.90;;;;;;5111591;27;20557;-70
2023/03/05 04:09:44;;;;;;;4.30;1.20;;;3.10;99.90;;;;;;5128411;27;20045;-70
2023/03/05 04:12:10;;;;;;;7.00;1.20;;;3.10;99.90;;;;;;5129071;27;20040;-70
2023/03/05 04:14:35;;;;;;;4.38;1.25;;;3.10;99.90;;;;;;5112527;28;20093;-70
2023/03/05 04:17:01;;;;;;;4.47;1.10;;;3.10;99.90;;;;;;5109987;28;20036;-70
2023/03/05 04:19:29;;;;;;;7.80;1.55;;;3.10;99.90;;;;;;5128182;27;20090;-70
2023/03/05 04:21:57;;;;;;;5.60;1.23;;;3.10;99.90;;;;;;5109857;28;20048;-70
2023/03/05 04:24:23;;;;;;;3.50;1.80;;;3.00;99.90;;;;;;5074444;28;20123;-70
2023/03/05 04:26:48;;;;;;;5.40;1.02;;;3.10;99.90;;;;;;5076569;28;20123;-70
2023/03/05 04:29:14;;;;;;;4.40;1.05;;;3.00;99.90;;;;;;5111690;28;20036;-70
2023/03/05 04:31:39;;;;;;;6.40;1.30;;;3.00;99.90;;;;;;5128771;27;20475;-70
2023/03/05 04:34:05;;;;;;;5.10;1.20;;;3.00;99.90;;;;;;5111263;27;20032;-70
2023/03/05 04:36:30;;;;;;;6.70;1.10;;;3.10;99.90;;;;;;5128239;27;20126;-70
2023/03/05 04:38:56;;;;;;;6.18;1.40;;;3.20;99.90;;;;;;5091171;28;20040;-70
2023/03/05 04:41:22;;;;;;;5.18;1.00;;;3.20;99.90;;;;;;5108128;28;20487;-70
2023/03/05 04:43:47;;;;;;;5.35;1.10;;;3.20;99.90;;;;;;5108489;27;20036;-70
2023/03/05 04:46:13;;;;;;;2.47;0.85;;;3.10;99.90;;;;;;5093678;28;20064;-70
2023/03/05 04:48:38;;;;;;;5.88;1.08;;;3.10;99.90;;;;;;5092004;28;20057;-70
2023/03/05 04:51:04;;;;;;;2.75;0.85;;;3.10;99.90;;;;;;5077424;28;20476;-70
2023/03/05 04:53:30;;;;;;;4.30;1.08;;;3.10;99.90;;;;;;5076701;28;20119;-70
2023/03/05 04:55:55;;;;;;;5.35;1.00;;;3.20;99.90;;;;;;5098680;28;20056;-70
2023/03/05 04:58:21;;;;;;;4.00;0.90;;;3.10;99.90;;;;;;5122165;27;20044;-70
2023/03/05 05:00:47;;;;;;;3.97;0.90;;;3.10;99.90;;;;;;5094147;28;20076;-70
2023/03/05 05:03:12;;;;;;;5.47;1.40;;;3.10;99.90;;;;;;5115587;27;20087;-70
2023/03/05 05:05:38;;;;;;;3.40;1.17;;;3.10;99.90;;;;;;5090675;28;20041;-70
2023/03/05 05:08:04;;;;;;;5.65;1.30;;;3.10;99.90;;;;;;5101539;28;20049;-70
2023/03/05 05:10:30;;;;;;;6.22;0.90;;;3.10;99.90;;;;;;5092325;28;20076;-70
2023/03/05 05:12:56;;;;;;;7.78;1.88;;;3.00;99.90;;;;;;5093921;28;20083;-70
2023/03/05 05:15:22;;;;;;;3.72;1.15;;;3.00;99.90;;;;;;5126733;27;20059;-70
2023/03/05 05:17:48;;;;;;;5.13;1.20;;;3.00;99.90;;;;;;5092108;28;20031;-70
2023/03/05 05:20:15;;;;;;;5.93;1.60;;;3.00;99.90;;;;;;5110064;27;20103;-70
2023/03/05 05:22:42;;;;;;;6.53;1.08;;;3.10;99.90;;;;;;5093995;28;20113;-70
2023/03/05 05:25:09;;;;;;;4.40;1.80;;;3.10;99.90;;;;;;5093985;28;20086;-70
2023/03/05 05:27:35;;;;;;;3.55;1.20;;;3.10;99.90;;;;;;5092496;28;20051;-70
2023/03/05 05:30:02;;;;;;;8.68;1.10;;;3.10;99.90;;;;;;5110778;28;20080;-70
2023/03/05 05:32:28;;;;;;;4.30;1.52;;;3.10;99.90;;;;;;5092690;28;20495;-70
2023/03/05 05:34:55;;;;;;;4.72;1.00;;;3.00;99.90;;;;;;5127592;27;20084;-70
2023/03/05 05:37:21;;;;;;;3.88;0.85;;;3.00;99.90;;;;;;5092972;28;20036;-70
2023/03/05 05:39:49;;;;;;;4.72;0.88;;;2.90;99.90;;;;;;5093591;28;20373;-70
2023/03/05 05:42:16;;;;;;;2.67;0.70;;;2.90;99.90;;;;;;5091859;28;20084;-70
2023/03/05 05:44:42;;;;;;;3.38;0.65;;;2.90;99.90;;;;;;5092589;28;20047;-70
2023/03/05 05:47:08;;;;;;;2.00;0.50;;;2.90;99.90;;;;;;5075080;28;20043;-70
2023/03/05 05:49:33;;;;;;;1.15;0.57;;;2.90;99.90;;;;;;5076511;28;20044;-70
2023/03/05 05:51:59;;;;;;;0.50;0.30;;;2.90;99.90;;;;;;5092361;28;20040;-70
2023/03/05 05:54:24;;;;;;;3.70;0.63;;;2.80;99.90;;;;;;5110125;28;20454;-70
2023/03/05 05:56:50;;;;;;;1.45;0.32;;;2.90;99.90;;;;;;5075197;28;20044;-70
2023/03/05 05:59:16;;;;;;;2.38;0.50;;;2.90;99.90;;;;;;5076050;28;20040;-70
2023/03/05 06:01:41;;;;;;;0.90;0.45;;;2.90;99.90;;;;;;5127267;27;20471;-69
2023/03/05 06:04:07;;;;;;;3.17;0.65;;;2.90;99.90;;;;;;5092468;28;20113;-69
2023/03/05 06:06:33;;;;;;;3.67;0.68;;;2.80;99.90;;;;;;5092041;28;20492;-69
2023/03/05 06:08:59;;;;;;;4.18;0.60;;;2.80;99.90;;;;;;5110009;28;20430;-70
2023/03/05 06:11:25;;;;;;;2.20;0.52;;;2.80;99.90;;;;;;5109232;28;20088;-70
2023/03/05 06:13:51;;;;;;;4.15;1.15;;;2.80;99.90;;;;;;5075282;28;20032;-69
2023/03/05 06:16:20;;;;;;;2.30;0.70;;;2.80;99.90;;;;;;5091658;28;20044;-70
2023/03/05 06:18:46;;;;;;;2.95;0.77;;;2.80;99.90;;;;;;5074754;28;20035;-70
2023/03/05 06:21:14;;;;;;;3.00;0.80;;;2.80;99.90;;;;;;5126754;27;20476;-70
2023/03/05 06:23:40;;;;;;;2.03;0.70;;;2.80;99.90;;;;;;5092562;28;20122;-70
2023/03/05 06:26:08;;;;;;;4.38;0.70;;;2.80;99.90;;;;;;5074221;28;20036;-70
2023/03/05 06:28:34;;;;;;;2.22;0.63;;;2.80;99.90;;;;;;5089785;28;20040;-70
2023/03/05 06:31:12;;;;;;;3.15;0.60;;;2.80;99.90;;;;;;5072169;28;20036;-70
2023/03/05 06:33:38;;;;;;;4.40;0.88;;;2.90;99.90;;;;;;5072362;28;20518;-70
2023/03/05 06:36:05;;;;;;;2.35;0.60;;;2.90;99.90;;;;;;5055471;28;20090;-70
2023/03/05 06:38:32;;;;;;;6.40;0.85;;;2.80;99.90;;;;;;5086198;28;20051;-70
2023/03/05 06:41:05;;;;;;;4.60;1.00;;;2.80;99.90;;;;;;5074188;28;20051;-70
2023/03/05 06:43:42;;;;;;;4.93;1.10;;;2.80;99.90;;;;;;5074907;28;20055;-70
2023/03/05 06:46:15;;;;;;;2.95;0.90;;;2.80;99.90;;;;;;5108517;28;20093;-71
2023/03/05 06:48:42;;;;;;;4.75;1.00;;;2.90;99.90;;;;;;5075061;28;20036;-67
2023/03/05 06:51:18;;;;;;;4.60;1.25;;;2.80;99.90;;;;;;5092216;28;20052;-68
2023/03/05 06:53:45;;;;;;;2.50;0.63;;;2.90;99.90;;;;;;5074600;28;20040;-68
2023/03/05 06:56:12;;;;;;;5.43;1.10;;;2.90;99.90;;;;;;5106866;28;20070;-68
2023/03/05 06:58:39;;;;;;;4.38;0.90;;;2.90;99.90;;;;;;5108916;28;20511;-68
2023/03/05 07:01:06;;;;;;;2.58;0.80;;;2.90;99.90;;;;;;5092271;28;20040;-68
2023/03/05 07:03:32;;;;;;;7.78;1.20;;;2.90;99.90;;;;;;5091182;28;20093;-68
2023/03/05 07:05:57;;;;;;;3.92;0.90;;;2.90;99.90;;;;;;5091364;28;20050;-68
2023/03/05 07:08:23;;;;;;;2.53;0.98;;;3.00;99.90;;;;;;5078738;28;20537;-68
2023/03/05 07:10:49;;;;;;;3.17;0.85;;;3.00;99.90;;;;;;5093273;28;20392;-68
2023/03/05 07:13:14;;;;;;;4.47;1.05;;;3.00;99.90;;;;;;5067675;28;20040;-68
2023/03/05 07:15:40;;;;;;;6.15;0.98;;;3.00;99.90;;;;;;5099174;28;20031;-68
2023/03/05 07:18:06;;;;;;;4.90;1.08;;;3.00;99.90;;;;;;5086362;28;20379;-68
2023/03/05 07:20:35;;;;;;;3.42;0.95;;;3.00;99.90;;;;;;5115636;28;20032;-68
2023/03/05 07:23:01;;;;;;;4.55;0.80;;;3.00;99.90;;;;;;5089120;28;20040;-68
2023/03/05 07:25:27;;;;;;;6.25;1.23;;;3.00;99.90;;;;;;5122444;28;20071;-68
2023/03/05 07:27:53;;;;;;;6.05;1.17;;;3.10;99.90;;;;;;5095990;28;20059;-68
2023/03/05 07:30:18;;;;;;;4.88;1.00;;;3.10;99.90;;;;;;5093181;28;20044;-68
2023/03/05 07:32:44;;;;;;;7.07;1.73;;;3.10;99.90;;;;;;5116223;28;20039;-68
2023/03/05 07:35:09;;;;;;;4.38;1.10;;;3.10;99.90;;;;;;5073374;28;20044;-68
2023/03/05 07:37:35;;;;;;;4.43;0.77;;;3.20;99.90;;;;;;5116935;27;20493;-68
2023/03/05 07:40:01;;;;;;;3.55;1.17;;;3.20;99.90;;;;;;5095214;28;20127;-68
2023/03/05 07:42:26;;;;;;;6.88;1.23;;;3.30;99.90;;;;;;5069388;28;20527;-68
2023/03/05 07:44:52;;;;;;;3.72;0.82;;;3.30;99.90;;;;;;5091582;28;20463;-68
2023/03/05 07:47:17;;;;;;;5.65;1.10;;;3.40;99.90;;;;;;5115510;27;20132;-68
2023/03/05 07:49:43;;;;;;;5.80;1.00;;;3.40;99.90;;;;;;5087908;28;20541;-68
2023/03/05 07:52:09;;;;;;;3.42;0.98;;;3.50;99.90;;;;;;5073450;28;20032;-68
2023/03/05 07:54:37;;;;;;;4.40;1.08;;;3.50;99.90;;;;;;5092429;28;20089;-68
2023/03/05 07:57:04;;;;;;;6.63;1.10;;;3.60;99.90;;;;;;5095215;28;20048;-68
2023/03/05 07:59:30;;;;;;;5.97;1.20;;;3.60;99.90;;;;;;5091333;28;20043;-68
2023/03/05 08:01:56;;;;;;;3.47;1.00;;;3.70;99.90;;;;;;5074571;28;20046;-68
2023/03/05 08:04:22;;;;;;;7.85;1.13;;;3.70;99.90;;;;;;5072219;28;20071;-68
2023/03/05 08:06:48;;;;;;;3.05;0.98;;;3.70;99.90;;;;;;5092477;28;20098;-68
2023/03/05 08:09:15;;;;;;;6.75;1.30;;;3.80;99.90;;;;;;5077592;28;20119;-68
2023/03/05 08:11:40;;;;;;;5.32;1.00;;;3.90;99.90;;;;;;5092215;28;20824;-68
2023/03/05 08:14:07;;;;;;;6.40;1.15;;;3.90;99.90;;;;;;5074253;28;20055;-68
2023/03/05 08:16:32;;;;;;;5.60;1.00;;;3.90;99.90;;;;;;5070644;28;20040;-68
2023/03/05 08:18:58;;;;;;;9.48;1.35;;;4.00;99.90;;;;;;5086631;28;20032;-68
2023/03/05 08:21:28;;;;;;;7.70;1.25;;;4.00;99.90;;;;;;5074515;28;20476;-68
2023/03/05 08:23:55;;;;;;;6.50;1.00;;;4.10;99.90;;;;;;5077136;28;20036;-68
2023/03/05 08:26:23;;;;;;;6.43;1.30;;;4.10;99.90;;;;;;5092651;28;20115;-69
2023/03/05 08:28:48;;;;;;;4.50;1.17;;;4.10;99.90;;;;;;5093667;28;20041;-68
2023/03/05 08:31:16;;;;;;;6.32;1.33;;;4.20;99.90;;;;;;5102215;28;20044;-68
2023/03/05 08:33:42;;;;;;;6.72;0.95;;;4.20;99.90;;;;;;5090449;28;20028;-68
2023/03/05 08:36:08;;;;;;;5.70;1.25;;;4.30;99.90;;;;;;5072420;28;20039;-68
2023/03/05 08:38:35;;;;;;;4.22;1.10;;;4.40;99.90;;;;;;5079331;28;20036;-68
2023/03/05 08:41:01;;;;;;;5.88;1.20;;;4.30;99.90;;;;;;5075251;28;20110;-68
2023/03/05 08:43:26;;;;;;;3.83;0.90;;;4.30;99.90;;;;;;5110617;28;20442;-68
2023/03/05 08:45:52;;;;;;;5.85;1.10;;;4.30;99.90;;;;;;5119974;27;20044;-68
2023/03/05 08:48:19;;;;;;;5.50;1.00;;;4.40;99.90;;;;;;5094369;28;20062;-68
2023/03/05 08:50:44;;;;;;;7.00;1.20;;;4.50;99.90;;;;;;5101628;28;20086;-68
2023/03/05 08:53:10;;;;;;;7.78;1.30;;;4.50;99.90;;;;;;5096654;28;20476;-68
2023/03/05 08:55:36;;;;;;;7.25;1.25;;;4.50;99.90;;;;;;5121368;27;20101;-68
2023/03/05 08:58:03;;;;;;;7.45;1.35;;;4.60;99.90;;;;;;5075395;28;20089;-68
2023/03/05 09:00:29;;;;;;;4.63;1.20;;;4.60;99.90;;;;;;5109646;28;20097;-68
2023/03/05 09:02:54;;;;;;;3.67;0.80;;;4.60;99.90;;;;;;5106592;28;20031;-68
2023/03/05 09:05:20;;;;;;;5.25;0.95;;;4.70;99.90;;;;;;5127570;27;20051;-68
2023/03/05 09:07:45;;;;;;;3.17;1.10;;;4.80;99.90;;;;;;5106066;28;20059;-68
2023/03/05 09:10:13;;;;;;;7.85;1.23;;;4.80;99.90;;;;;;5087858;28;20062;-68
2023/03/05 09:12:41;;;;;;;11.70;1.20;;;4.90;99.90;;;;;;5094731;28;20468;-68
2023/03/05 09:15:09;;;;;;;8.00;1.38;;;4.90;99.90;;;;;;5091481;28;20036;-68
2023/03/05 09:17:36;;;;;;;8.98;1.45;;;5.00;99.90;;;;;;5089853;28;20039;-68
2023/03/05 09:20:04;;;;;;;10.43;1.45;;;5.00;99.90;;;;;;5080955;28;20043;-68
2023/03/05 09:22:29;;;;;;;6.90;1.20;;;5.20;99.90;;;;;;5072682;28;20093;-68
2023/03/05 09:24:55;;;;;;;6.68;1.20;;;5.20;99.90;;;;;;5086435;28;20509;-68
2023/03/05 09:27:21;;;;;;;4.15;1.00;;;5.30;99.90;;;;;;5079807;28;20123;-68
2023/03/05 09:29:47;;;;;;;5.25;1.00;;;5.40;99.90;;;;;;5067579;28;20154;-68
2023/03/05 09:32:12;;;;;;;7.03;1.35;;;5.50;99.90;;;;;;5106560;27;20036;-68
2023/03/05 09:34:38;;;;;;;5.80;1.20;;;5.60;99.90;;;;;;5092434;28;20048;-68
2023/03/05 09:37:03;;;;;;;8.57;1.23;;;5.60;99.90;;;;;;5110835;27;20071;-68
2023/03/05 09:39:29;;;;;;;8.30;1.10;;;5.70;99.90;;;;;;5093044;28;20040;-68
2023/03/05 09:42:03;;;;;;;6.70;1.13;;;5.80;99.90;;;;;;5085868;28;20071;-68
2023/03/05 09:44:45;;;;;;;5.30;0.98;;;5.90;99.90;;;;;;5083154;28;20040;-68
2023/03/05 09:47:45;;;;;;;10.48;1.10;;;6.10;99.90;;;;;;5087435;28;20051;-68
2023/03/05 09:50:19;;;;;;;3.50;0.65;;;6.20;99.90;;;;;;5072616;28;20408;-68
2023/03/05 09:52:52;;;;;;;5.65;1.13;;;6.10;99.90;;;;;;5075596;28;20036;-68
2023/03/05 09:55:31;;;;;;;3.08;0.60;;;5.80;99.90;;;;;;5069868;28;20039;-70
2023/03/05 09:58:04;;;;;;;4.55;0.68;;;5.50;99.90;;;;;;5073073;28;20193;-70
2023/03/05 10:00:54;;;;;;;2.78;0.50;;;5.30;99.90;;;;;;5074435;28;20064;-70
2023/03/05 10:03:34;;;;;;;2.42;0.60;;;5.20;99.90;;;;;;5070005;28;20393;-70
2023/03/05 10:06:02;;;;;;;1.75;0.52;;;5.10;99.90;;;;;;5084696;28;20072;-70
2023/03/05 10:08:44;;;;;;;1.80;0.60;;;5.10;99.90;;;;;;5110111;27;20028;-70
2023/03/05 10:11:25;;;;;;;1.73;0.50;;;5.10;99.90;;;;;;5097547;28;20031;-70
2023/03/05 10:13:51;;;;;;;2.53;0.47;;;5.10;99.90;;;;;;5073557;28;20123;-70
2023/03/05 10:16:17;;;;;;;1.33;0.40;;;5.10;99.90;;;;;;5089676;28;20123;-70
2023/03/05 10:19:02;;;;;;;1.60;0.50;;;5.10;99.90;;;;;;5074410;28;20105;-71
2023/03/05 10:21:47;;;;;;;3.17;0.60;;;5.10;99.90;;;;;;5091980;28;20040;-70
2023/03/05 10:24:21;;;;;;;4.15;0.55;;;5.20;99.90;;;;;;5108946;27;20370;-70
2023/03/05 10:27:01;;;;;;;3.22;0.60;;;5.20;99.90;;;;;;5057621;28;20053;-70
2023/03/05 10:29:46;;;;;;;4.10;0.60;;;5.20;99.90;;;;;;5091069;28;20044;-70
2023/03/05 10:32:41;;;;;;;2.80;0.65;;;5.20;99.90;;;;;;5073415;28;20044;-70
2023/03/05 10:35:31;;;;;;;3.53;0.80;;;5.30;99.90;;;;;;5088984;28;20126;-70
2023/03/05 10:38:16;;;;;;;1.90;0.65;;;5.40;99.90;;;;;;5082309;28;20384;-70
2023/03/05 10:40:56;;;;;;;2.88;0.73;;;5.30;99.90;;;;;;5069527;28;20111;-70
2023/03/05 10:43:48;;;;;;;3.70;0.70;;;5.30;99.90;;;;;;5090370;28;20431;-69
2023/03/05 10:46:21;;;;;;;2.83;1.02;;;5.30;99.90;;;;;;5068911;28;20044;-70
2023/03/05 10:48:51;;;;;;;4.32;0.80;;;5.40;99.90;;;;;;5066323;28;20063;-70
2023/03/05 10:51:30;;;;;;;5.20;0.80;;;5.50;99.90;;;;;;5100758;28;20046;-70
2023/03/05 10:54:03;;;;;;;4.22;0.77;;;5.70;99.90;;;;;;5107186;28;20044;-70
2023/03/05 10:56:30;;;;;;;8.18;1.20;;;5.80;99.90;;;;;;5093140;28;20075;-70
2023/03/05 10:58:56;;;;;;;3.67;0.90;;;5.80;99.90;;;;;;5073667;28;20044;-70
2023/03/05 11:01:24;;;;;;;5.43;0.98;;;6.00;99.90;;;;;;5081661;28;20077;-70
2023/03/05 11:04:02;;;;;;;4.22;1.00;;;6.10;99.90;;;;;;5073440;28;20472;-70
2023/03/05 11:06:33;;;;;;;6.32;1.13;;;6.30;99.90;;;;;;5090459;28;20690;-70
2023/03/05 11:09:19;;;;;;;4.60;1.15;;;6.30;99.90;;;;;;5124592;28;20130;-70
2023/03/05 11:12:12;;;;;;;4.30;1.27;;;6.40;99.90;;;;;;5076613;28;20047;-70
2023/03/05 11:14:44;;;;;;;2.58;0.70;;;6.50;99.90;;;;;;5083368;28;20044;-70
2023/03/05 11:17:27;;;;;;;1.58;0.60;;;6.60;99.90;;;;;;5102763;28;20051;-70
2023/03/05 11:19:55;;;;;;;7.20;1.23;;;6.80;99.90;;;;;;5118351;27;20060;-70
2023/03/05 11:22:22;;;;;;;5.25;1.10;;;6.90;99.90;;;;;;5081610;28;20067;-70
2023/03/05 11:25:15;;;;;;;5.40;1.00;;;6.90;99.90;;;;;;5083505;28;20055;-70
2023/03/05 11:28:00;;;;;;;7.10;1.05;;;6.90;99.90;;;;;;5082109;28;20366;-70
2023/03/05 11:30:34;;;;;;;3.00;0.70;;;6.70;99.90;;;;;;5086266;28;20089;-70
2023/03/05 11:33:13;;;;;;;4.47;0.95;;;6.60;99.90;;;;;;5094395;28;20040;-70
2023/03/05 11:35:41;;;;;;;4.53;1.10;;;6.60;99.90;;;;;;5111854;27;20044;-70
2023/03/05 11:38:17;;;;;;;4.68;0.70;;;6.60;99.90;;;;;;5112532;28;20036;-70
2023/03/05 11:40:42;;;;;;;4.60;1.05;;;6.60;99.90;;;;;;5124488;27;20037;-71
2023/03/05 11:43:15;;;;;;;4.47;0.90;;;6.70;99.90;;;;;;5081143;28;20484;-70
2023/03/05 11:45:42;;;;;;;7.00;0.95;;;6.80;99.90;;;;;;5109501;27;20046;-70
2023/03/05 11:48:14;;;;;;;2.78;0.60;;;7.00;99.90;;;;;;5092208;28;20040;-70
2023/03/05 11:50:42;;;;;;;3.10;0.70;;;7.00;99.90;;;;;;5113206;27;20115;-70
2023/03/05 11:53:21;;;;;;;4.03;0.55;;;7.10;99.90;;;;;;5085914;28;20547;-70
2023/03/05 11:55:51;;;;;;;5.28;1.08;;;7.00;99.90;;;;;;5100526;27;20036;-71
2023/03/05 11:58:42;;;;;;;3.88;0.60;;;7.00;99.90;;;;;;5087640;28;20051;-71
2023/03/05 12:01:20;;;;;;;3.33;0.50;;;6.90;99.90;;;;;;5074742;28;20040;-69
2023/03/05 12:03:47;;;;;;;4.53;0.70;;;6.90;99.90;;;;;;5076692;28;20044;-68
2023/03/05 12:06:39;;;;;;;5.40;0.95;;;7.10;99.90;;;;;;5072249;28;20031;-69
2023/03/05 12:09:07;;;;;;;;;;;7.10;99.90;;;;;;5067944;28;20119;-68
2023/03/05 12:11:35;;;;;;;8.25;1.00;;;7.20;99.90;;;;;;5075019;28;19923;-68
2023/03/05 12:14:22;;;;;;;8.50;1.05;;;7.20;99.90;;;;;;5076802;28;20085;-69
2023/03/05 12:17:14;;;;;;;3.72;1.00;;;7.10;99.90;;;;;;5086320;28;20035;-69
2023/03/05 12:19:57;;;;;;;2.28;0.77;;;7.00;99.90;;;;;;5070092;28;20032;-69
2023/03/05 12:22:25;;;;;;;7.82;1.02;;;7.00;99.90;;;;;;5097423;27;20094;-69
2023/03/05 12:24:51;;;;;;;4.68;0.95;;;7.00;99.90;;;;;;5071583;28;20036;-69
2023/03/05 12:27:34;;;;;;;5.70;0.80;;;7.00;99.90;;;;;;5099686;28;20396;-69
2023/03/05 12:30:00;;;;;;;5.40;0.90;;;7.10;99.90;;;;;;5093502;28;20039;-69
2023/03/05 12:32:32;;;;;;;3.90;0.75;;;7.10;99.90;;;;;;5076294;28;20036;-69
2023/03/05 12:34:59;;;;;;;3.40;0.60;;;7.10;99.90;;;;;;5073543;28;20045;-69
2023/03/05 12:37:24;;;;;;;3.97;0.60;;;7.00;99.90;;;;;;5062932;28;20515;-69
2023/03/05 12:40:09;;;;;;;6.68;0.60;;;6.90;99.90;;;;;;5084071;28;20036;-69
2023/03/05 12:42:41;;;;;;;2.88;0.50;;;6.90;99.90;;;;;;5086145;28;20051;-69
2023/03/05 12:45:18;;;;;;;3.75;0.57;;;6.90;99.90;;;;;;5078132;28;20032;-69
2023/03/05 12:48:11;;;;;;;2.88;0.60;;;6.80;99.90;;;;;;5087044;28;20123;-69
2023/03/05 12:50:36;;;;;;;3.30;0.68;;;6.70;99.90;;;;;;5075813;28;20127;-69
2023/03/05 12:53:17;;;;;;;3.92;0.80;;;6.70;99.90;;;;;;5066918;28;20119;-69
2023/03/05 12:55:44;;;;;;;2.10;0.50;;;6.70;99.90;;;;;;5079935;28;20045;-69
2023/03/05 12:58:21;;;;;;;3.33;0.73;;;6.70;99.90;;;;;;5074788;28;20040;-69
2023/03/05 13:01:12;;;;;;;2.15;0.60;;;6.80;99.90;;;;;;5073579;28;20435;-69
2023/03/05 13:03:44;;;;;;;5.63;1.42;;;6.90;99.90;;;;;;5093211;28;20504;-69
2023/03/05 13:06:23;;;;;;;2.97;0.65;;;6.90;99.90;;;;;;5094599;28;20054;-69
2023/03/05 13:09:17;;;;;;;4.00;0.60;;;7.00;99.90;;;;;;5081038;28;20086;-69